Bryant AAF Airport Airport (FRN)

 

Airport Diagram
Current Weather/Forecast (VFR Conditions)
METAR PAFR 312224Z AUTO 10010G22KT 9SM OVC150 09/M01 A2868 RMK AO2 WSHFT 21 SLP718
TAF

All Charts

Inbound Traffic (Arrivals)

No inbound traffic.


Outbound Traffic (Departures)

No outbound traffic.